Byfield, MA (01922)

9:46 PM EDT on May 25, 2015 (GMT -0400)
Kimball Rd | | Change Station
CLOSE
Current Station
Personal Weather Station
Location: West Newbury, MA
Elevation: 194 ft
Nearby Weather Stations

Elev 194 ft 42.79 °N, 70.98 °W | Updated 3 minutes ago

Partly Cloudy
Partly Cloudy
71.7 °F
Feels Like 76 °F
N
4.3
Wind Variable Wind from North

Today
High -- | Low -- °F
--% Chance of Precip.
Yesterday
High -- | Low -- °F
Precip. -- in
5:12 AM 8:09 PM
First Quarter, 53% visible
Pressure 30.15 in
Visibility 10.0 miles
Clouds Clear
Heat Index 76 °F
Dew Point 56 °F
Humidity 57%
Rainfall -999.00 in
Snow Depth Not available.
UV 0 out of 12
Pollen 9.50 out of 12
Air Quality Not available.
Flu Activity Local Activity
METAR KLWM 260054Z VRB06KT 10SM CLR 23/13 A3015

More Conditions Fewer Conditions

Pressure 30.15 in
Visibility 10.0 miles
Clouds Clear
Heat Index 76 °F
Dew Point 56 °F
Humidity 57%
Rainfall -999.00 in
Snow Depth Not available.
UV 0 out of 12
Pollen 9.50 out of 12
Air Quality Not available.
Flu Activity Local Activity
METAR KLWM 260054Z VRB06KT 10SM CLR 23/13 A3015

More Conditions Fewer Conditions

10-Day Weather Forecast

Almanac

Astronomy

May. 25, 2015 Rise Set
Actual Time
Civil Twilight
Nautical Twilight
Astronomical Twilight
Moon
Length of Visible Light
Length of Day
Tomorrow will be .
, % of the Moon is Illuminated

Today's Extremes

State Highs State Lows

Community

WunderPhotos

Upload Photos

1,824,221 photos uploaded!

WunderBlogs® & News

Nearby

Air Quality

  Air Quality AQ Index Pollutant
Not available.

Snow Depth

Station Depth Elevation

Earthquake Activity

City Distance Mag. Time & Date
Minimum magnitude displayed is 2.5.

Coastal Water Temperatures

Place Temperature

Stations

Nearby Weather Stations

Station Location Temp. Windchill Dew Point Humidity Wind Precip. Elev Updated Type